Aérodrome :
LOGIN :

S'inscrire | Disclaimer

   EN    FR    IT 

 










Légende :    VFR   VFR Marginal   IFR   IFR Intensif   IFR Très Intensif
Visi : 
Plafond : 
>= 8 km
>= 3000ft
5 à 8 km
1000 à 3000 ft
1500m à 5 km
500 à 1000 ft
800 à 1500m
200 à 500 ft
< 800m
< 200 ft
Symboles :   Orages  Brouillard  Fortes neiges  Fortes précipitations  Vent > 20 kt
SIGMETs :   Divers  Orages  Givrage  Turbulence  Onde Orograph.  Cendres Volcan.






- Altitude de l'aérodrome : 23 ft
- Code IATA : XFW


EDHI - Hamburg Finkenwerder

DERNIER METAR :
  • 190250Z AUTO 22016G26KT 9000 2900 // BKN018/// OVC024/// 06/04 Q1007

METARs EXPIRÉS :
  • 190220Z AUTO 21015G25KT 180V240 9999 // BKN020/// BKN029/// OVC076/// 06/04 Q1007
  • 190150Z AUTO 21015KT 9999 // SCT021/// BKN030/// OVC065/// 06/03 Q1007
  • 190120Z AUTO 21014KT 9999 // BKN019/// OVC027/// 06/04 Q1008
  • 190050Z AUTO 22013KT 9999 // BKN019/// BKN022/// OVC026/// 06/04 Q1009
  • 190020Z AUTO 22015KT 9999 // BKN023/// OVC030/// 06/03 Q1009

Prévision TAF périmée.



MET'MAP, la Météo Aéronautique d'un coup d'oeil ! - Copyright ORBIFLY Décembre 2007 - Disclaimer

ORBIFLY MET'MAP TEAM :

Programmation & Développement : Alexandra Zaïnal
Sur une idée originale de : Baudouin d'Aumeries
Assistance à la programmation : Marc-Olivier Méhu
Soutien technique & logistique : Manuel Goepfert

Contact : metmap@orbifly.com




SOURCES & CREDITS :

   NOAA